Time;durP1;ratioP1;P1;durP2;ratioP2;P2;SDS_P1;SDS_P2;PMS_P1;PMS_P2;Temp;Humidity;BMP_temperature;BMP_pressure;BME280_temperature;BME280_humidity;BME280_pressure;Samples;Min_cycle;Max_cycle;Signal;HPM_P1;HPM_P2
2023/04/08 00:01:19;;;;;;;67.57;11.37;;;;;;;;;;5071916;28;20451;-68
2023/04/08 00:03:46;;;;;;;67.83;10.40;;;;;;;;;;5071760;28;20487;-68
2023/04/08 00:06:13;;;;;;;70.20;12.80;;;;;;;;;;5072100;28;20448;-67
2023/04/08 00:08:40;;;;;;;67.60;11.87;;;;;;;;;;5071424;28;20470;-68
2023/04/08 00:11:07;;;;;;;66.40;10.97;;;;;;;;;;5071948;28;20454;-69
2023/04/08 00:13:35;;;;;;;67.67;12.13;;;;;;;;;;5071748;28;20447;-68
2023/04/08 00:16:03;;;;;;;66.93;11.10;;;;;;;;;;5071671;28;20520;-68
2023/04/08 00:18:30;;;;;;;67.83;11.10;;;;;;;;;;5071505;28;20473;-68
2023/04/08 00:20:58;;;;;;;66.37;11.87;;;;;;;;;;5071654;28;20940;-68
2023/04/08 00:23:25;;;;;;;73.37;12.30;;;;;;;;;;5071644;28;20495;-68
2023/04/08 00:25:52;;;;;;;65.20;11.00;;;;;;;;;;5071688;28;20454;-69
2023/04/08 00:28:20;;;;;;;66.93;11.57;;;;;;;;;;5071468;28;20463;-68
2023/04/08 00:30:47;;;;;;;67.90;11.27;;;;;;;;;;5071443;28;20805;-68
2023/04/08 00:33:15;;;;;;;65.20;10.37;;;;;;;;;;5071926;28;20447;-68
2023/04/08 00:35:42;;;;;;;67.20;12.47;;;;;;;;;;5072107;28;20457;-68
2023/04/08 00:38:10;;;;;;;68.67;11.97;;;;;;;;;;5071678;28;20464;-68
2023/04/08 00:40:37;;;;;;;68.10;11.60;;;;;;;;;;5071323;28;20452;-68
2023/04/08 00:43:04;;;;;;;67.17;10.70;;;;;;;;;;5071239;28;20574;-67
2023/04/08 00:45:32;;;;;;;67.27;11.60;;;;;;;;;;5071701;28;20819;-68
2023/04/08 00:47:59;;;;;;;68.63;12.40;;;;;;;;;;5071654;28;20471;-68
2023/04/08 00:50:27;;;;;;;65.37;11.07;;;;;;;;;;5071260;28;20487;-69
2023/04/08 00:52:54;;;;;;;65.80;11.20;;;;;;;;;;5071820;28;20453;-67
2023/04/08 00:55:22;;;;;;;67.13;11.20;;;;;;;;;;5071483;28;20794;-68
2023/04/08 00:57:49;;;;;;;69.30;11.97;;;;;;;;;;5074025;28;20490;-68
2023/04/08 01:00:16;;;;;;;69.27;12.37;;;;;;;;;;5075043;28;20494;-69
2023/04/08 01:02:46;;;;;;;66.17;12.00;;;;;;;;;;5075186;28;20477;-68
2023/04/08 01:05:15;;;;;;;68.30;12.17;;;;;;;;;;5075000;28;20493;-67
2023/04/08 01:07:45;;;;;;;66.80;11.57;;;;;;;;;;5074956;28;20473;-68
2023/04/08 01:10:13;;;;;;;70.27;12.60;;;;;;;;;;5074570;28;20455;-68
2023/04/08 01:12:42;;;;;;;68.43;13.53;;;;;;;;;;5075130;28;20454;-68
2023/04/08 01:15:11;;;;;;;70.60;15.60;;;;;;;;;;5075118;28;20439;-68
2023/04/08 01:17:39;;;;;;;70.57;14.30;;;;;;;;;;5074950;28;20475;-67
2023/04/08 01:20:08;;;;;;;71.90;16.20;;;;;;;;;;5074598;28;20454;-68
2023/04/08 01:22:39;;;;;;;69.77;14.37;;;;;;;;;;5073813;28;20454;-68
2023/04/08 01:25:11;;;;;;;71.70;14.73;;;;;;;;;;5074570;28;20483;-68
2023/04/08 01:27:40;;;;;;;70.87;14.63;;;;;;;;;;5074706;28;20475;-68
2023/04/08 01:30:08;;;;;;;70.57;13.63;;;;;;;;;;5074332;28;20874;-69
2023/04/08 01:32:35;;;;;;;72.83;14.03;;;;;;;;;;5074539;28;20462;-68
2023/04/08 01:35:03;;;;;;;69.30;13.00;;;;;;;;;;5074491;28;20984;-67
2023/04/08 01:37:31;;;;;;;73.30;15.37;;;;;;;;;;5074469;28;20451;-68
2023/04/08 01:39:59;;;;;;;74.53;16.20;;;;;;;;;;5074199;28;20447;-68
2023/04/08 01:42:27;;;;;;;71.50;16.07;;;;;;;;;;5074416;28;20975;-68
2023/04/08 01:44:57;;;;;;;71.43;15.03;;;;;;;;;;5074275;28;20479;-68
2023/04/08 01:47:24;;;;;;;71.87;14.97;;;;;;;;;;5074205;28;20448;-68
2023/04/08 01:49:51;;;;;;;72.20;14.90;;;;;;;;;;5074101;28;20526;-68
2023/04/08 01:52:19;;;;;;;73.50;15.87;;;;;;;;;;5074316;28;20448;-68
2023/04/08 01:54:46;;;;;;;73.97;16.73;;;;;;;;;;5074262;28;20854;-69
2023/04/08 01:57:17;;;;;;;72.17;15.43;;;;;;;;;;5074110;28;20932;-68
2023/04/08 01:59:46;;;;;;;71.47;14.83;;;;;;;;;;5073733;28;20974;-68
2023/04/08 02:02:16;;;;;;;71.83;14.57;;;;;;;;;;5074307;28;20454;-68
2023/04/08 02:04:43;;;;;;;74.40;16.47;;;;;;;;;;5074055;28;21007;-68
2023/04/08 02:07:10;;;;;;;77.07;17.97;;;;;;;;;;5073999;28;20454;-68
2023/04/08 02:09:37;;;;;;;75.40;17.33;;;;;;;;;;5073588;28;20467;-68
2023/04/08 02:12:04;;;;;;;77.83;17.83;;;;;;;;;;5073702;28;20451;-69
2023/04/08 02:14:31;;;;;;;73.30;17.10;;;;;;;;;;5073777;28;20447;-68
2023/04/08 02:17:02;;;;;;;77.40;17.13;;;;;;;;;;5073854;28;20554;-68
2023/04/08 02:19:32;;;;;;;74.57;17.50;;;;;;;;;;5073478;28;20551;-68
2023/04/08 02:22:10;;;;;;;73.83;17.00;;;;;;;;;;5073763;28;20458;-68
2023/04/08 02:24:38;;;;;;;74.00;16.27;;;;;;;;;;5073312;28;20493;-68
2023/04/08 02:27:05;;;;;;;76.60;17.00;;;;;;;;;;5073445;28;20456;-68
2023/04/08 02:29:33;;;;;;;79.47;18.00;;;;;;;;;;5073552;28;20467;-68
2023/04/08 02:32:02;;;;;;;72.57;17.07;;;;;;;;;;5073574;28;20454;-68
2023/04/08 02:34:30;;;;;;;75.90;17.33;;;;;;;;;;5073425;28;20450;-67
2023/04/08 02:36:58;;;;;;;76.73;17.80;;;;;;;;;;5073272;28;20451;-68
2023/04/08 02:39:31;;;;;;;74.37;16.00;;;;;;;;;;5073150;28;20641;-68
2023/04/08 02:41:58;;;;;;;74.50;16.37;;;;;;;;;;5073465;28;20504;-68
2023/04/08 02:44:25;;;;;;;73.23;16.77;;;;;;;;;;5073112;28;21013;-68
2023/04/08 02:46:52;;;;;;;73.40;16.80;;;;;;;;;;5073341;28;20823;-68
2023/04/08 02:49:19;;;;;;;74.27;16.70;;;;;;;;;;5072641;28;20475;-69
2023/04/08 02:51:48;;;;;;;73.90;15.47;;;;;;;;;;5073174;28;20443;-68
2023/04/08 02:54:15;;;;;;;74.80;17.20;;;;;;;;;;5073222;28;20448;-68
2023/04/08 02:56:42;;;;;;;73.93;16.60;;;;;;;;;;5073036;28;20458;-67
2023/04/08 02:59:09;;;;;;;71.77;14.97;;;;;;;;;;5072541;28;20467;-68
2023/04/08 03:01:36;;;;;;;75.87;15.73;;;;;;;;;;5073002;28;20460;-68
2023/04/08 03:04:03;;;;;;;81.97;18.23;;;;;;;;;;5072843;28;20479;-68
2023/04/08 03:06:31;;;;;;;75.47;17.07;;;;;;;;;;5072945;28;20454;-68
2023/04/08 03:08:59;;;;;;;72.63;14.67;;;;;;;;;;5072271;28;20467;-69
2023/04/08 03:11:26;;;;;;;71.70;15.13;;;;;;;;;;5072697;28;20455;-68
2023/04/08 03:13:53;;;;;;;73.57;15.70;;;;;;;;;;5072690;28;20211;-68
2023/04/08 03:16:20;;;;;;;70.93;15.90;;;;;;;;;;5073078;28;20457;-67
2023/04/08 03:18:47;;;;;;;73.83;15.13;;;;;;;;;;5071882;28;20467;-68
2023/04/08 03:21:15;;;;;;;73.17;15.90;;;;;;;;;;5072306;28;20451;-68
2023/04/08 03:23:42;;;;;;;75.97;16.57;;;;;;;;;;5072560;28;20463;-67
2023/04/08 03:26:10;;;;;;;73.47;16.55;;;;;;;;;;5072449;28;20452;-68
2023/04/08 03:28:37;;;;;;;72.37;16.50;;;;;;;;;;5072078;28;20319;-68
2023/04/08 03:31:04;;;;;;;74.60;16.67;;;;;;;;;;5072224;28;20447;-68
2023/04/08 03:33:32;;;;;;;72.40;15.82;;;;;;;;;;5072275;28;20448;-68
2023/04/08 03:35:59;;;;;;;77.77;17.03;;;;;;;;;;5072495;28;20201;-68
2023/04/08 03:38:26;;;;;;;73.97;16.60;;;;;;;;;;5072139;28;20908;-68
2023/04/08 03:40:53;;;;;;;79.10;18.90;;;;;;;;;;5072159;28;20443;-67
2023/04/08 03:43:21;;;;;;;76.85;16.60;;;;;;;;;;5072222;28;20451;-68
2023/04/08 03:45:48;;;;;;;74.53;16.17;;;;;;;;;;5072029;28;20403;-67
2023/04/08 03:48:16;;;;;;;75.80;16.97;;;;;;;;;;5072107;28;20471;-67
2023/04/08 03:50:43;;;;;;;77.70;18.77;;;;;;;;;;5071803;28;20452;-68
2023/04/08 03:53:11;;;;;;;75.63;17.50;;;;;;;;;;5072114;28;20822;-68
2023/04/08 03:55:38;;;;;;;74.57;17.27;;;;;;;;;;5071958;28;20454;-68
2023/04/08 03:58:05;;;;;;;76.10;17.70;;;;;;;;;;5071817;28;20505;-68
2023/04/08 04:00:34;;;;;;;80.03;19.15;;;;;;;;;;5071575;28;20454;-68
2023/04/08 04:03:01;;;;;;;75.47;17.40;;;;;;;;;;5072052;28;20579;-68
2023/04/08 04:05:28;;;;;;;76.57;19.17;;;;;;;;;;5071948;28;20493;-68
2023/04/08 04:07:57;;;;;;;77.93;18.80;;;;;;;;;;5071801;28;20471;-69
2023/04/08 04:10:24;;;;;;;78.97;18.83;;;;;;;;;;5071664;28;20893;-67
2023/04/08 04:12:51;;;;;;;81.20;19.03;;;;;;;;;;5071702;28;20500;-68
2023/04/08 04:15:18;;;;;;;79.60;19.33;;;;;;;;;;5071944;28;20443;-68
2023/04/08 04:17:49;;;;;;;76.93;17.30;;;;;;;;;;5071744;28;20980;-67
2023/04/08 04:20:16;;;;;;;76.60;18.13;;;;;;;;;;5071564;28;20525;-69
2023/04/08 04:22:43;;;;;;;81.10;19.00;;;;;;;;;;5071745;28;20450;-67
2023/04/08 04:25:10;;;;;;;82.82;19.60;;;;;;;;;;5071467;28;20514;-68
2023/04/08 04:27:37;;;;;;;81.60;20.57;;;;;;;;;;5071559;28;20228;-68
2023/04/08 04:30:06;;;;;;;77.45;17.50;;;;;;;;;;5071468;28;20455;-68
2023/04/08 04:32:33;;;;;;;79.05;20.25;;;;;;;;;;5074494;28;20674;-68
2023/04/08 04:35:01;;;;;;;78.67;18.17;;;;;;;;;;5075937;28;20478;-67
2023/04/08 04:37:29;;;;;;;75.82;16.90;;;;;;;;;;5075484;28;20447;-68
2023/04/08 04:39:56;;;;;;;79.20;18.93;;;;;;;;;;5075349;28;20295;-68
2023/04/08 04:42:23;;;;;;;78.13;18.70;;;;;;;;;;5075857;28;20454;-68
2023/04/08 04:44:50;;;;;;;80.97;19.07;;;;;;;;;;5075592;28;20593;-68
2023/04/08 04:47:17;;;;;;;80.95;19.00;;;;;;;;;;5075301;28;20455;-68
2023/04/08 04:49:45;;;;;;;81.70;19.80;;;;;;;;;;5075367;28;20250;-68
2023/04/08 04:52:13;;;;;;;79.80;17.83;;;;;;;;;;5075355;28;20255;-68
2023/04/08 04:54:41;;;;;;;80.70;18.92;;;;;;;;;;5075220;28;20444;-69
2023/04/08 04:57:08;;;;;;;82.18;20.52;;;;;;;;;;5074445;28;20209;-68
2023/04/08 04:59:35;;;;;;;79.57;19.40;;;;;;;;;;5074267;28;20225;-68
2023/04/08 05:02:02;;;;;;;82.63;18.10;;;;;;;;;;5074956;28;20205;-68
2023/04/08 05:04:29;;;;;;;81.97;18.42;;;;;;;;;;5074852;28;20224;-69
2023/04/08 05:06:56;;;;;;;79.97;19.08;;;;;;;;;;5074391;28;20295;-68
2023/04/08 05:09:24;;;;;;;78.60;17.98;;;;;;;;;;5073753;28;20231;-69
2023/04/08 05:11:52;;;;;;;79.63;18.98;;;;;;;;;;5074799;28;20205;-68
2023/04/08 05:14:19;;;;;;;80.28;19.25;;;;;;;;;;5074728;28;20591;-67
2023/04/08 05:16:46;;;;;;;80.63;18.58;;;;;;;;;;5074744;28;20205;-68
2023/04/08 05:19:13;;;;;;;84.27;20.80;;;;;;;;;;5074456;28;20221;-68
2023/04/08 05:21:40;;;;;;;83.15;19.65;;;;;;;;;;5074266;28;20965;-67
2023/04/08 05:24:07;;;;;;;81.38;19.88;;;;;;;;;;5073646;28;20220;-67
2023/04/08 05:26:37;;;;;;;80.73;20.23;;;;;;;;;;5073363;28;20215;-67
2023/04/08 05:29:04;;;;;;;84.50;20.30;;;;;;;;;;5073097;28;20470;-68
2023/04/08 05:31:32;;;;;;;79.70;19.13;;;;;;;;;;5073266;28;20707;-68
2023/04/08 05:33:59;;;;;;;83.90;21.10;;;;;;;;;;5072962;28;20217;-67
2023/04/08 05:36:26;;;;;;;83.90;21.53;;;;;;;;;;5073643;28;20208;-69
2023/04/08 05:38:53;;;;;;;82.50;21.77;;;;;;;;;;5072622;28;21048;-68
2023/04/08 05:41:20;;;;;;;85.60;21.53;;;;;;;;;;5073327;28;20205;-68
2023/04/08 05:43:49;;;;;;;85.03;22.10;;;;;;;;;;5072920;28;20457;-67
2023/04/08 05:46:16;;;;;;;85.68;21.65;;;;;;;;;;5072762;28;21037;-68
2023/04/08 05:48:43;;;;;;;82.57;20.17;;;;;;;;;;5072592;28;20232;-67
2023/04/08 05:51:13;;;;;;;83.87;21.03;;;;;;;;;;5073267;28;20212;-68
2023/04/08 05:53:40;;;;;;;86.83;20.53;;;;;;;;;;5072895;28;20447;-68
2023/04/08 05:56:08;;;;;;;83.68;21.73;;;;;;;;;;5073100;28;20455;-68
2023/04/08 05:58:35;;;;;;;83.60;22.80;;;;;;;;;;5072570;28;20236;-67
2023/04/08 06:01:05;;;;;;;82.93;22.10;;;;;;;;;;5072676;28;20470;-68
2023/04/08 06:03:32;;;;;;;84.93;21.90;;;;;;;;;;5073273;28;20277;-67
2023/04/08 06:05:59;;;;;;;82.67;22.13;;;;;;;;;;5073008;28;20483;-68
2023/04/08 06:08:26;;;;;;;83.23;23.03;;;;;;;;;;5072621;28;21211;-68
2023/04/08 06:10:53;;;;;;;82.93;21.93;;;;;;;;;;5072838;28;20459;-68
2023/04/08 06:13:20;;;;;;;82.50;23.00;;;;;;;;;;5072782;28;20546;-68
2023/04/08 06:15:49;;;;;;;80.47;21.77;;;;;;;;;;5072615;28;20531;-68
2023/04/08 06:18:17;;;;;;;83.37;20.60;;;;;;;;;;5072456;28;20506;-68
2023/04/08 06:20:45;;;;;;;78.27;19.90;;;;;;;;;;5072422;28;20809;-68
2023/04/08 06:23:12;;;;;;;79.10;20.20;;;;;;;;;;5032157;28;1138244;-67
2023/04/08 06:25:39;;;;;;;85.67;22.17;;;;;;;;;;5072980;28;21024;-68
2023/04/08 06:28:06;;;;;;;80.10;20.60;;;;;;;;;;5073444;28;20467;-68
2023/04/08 06:30:33;;;;;;;82.07;19.77;;;;;;;;;;5073158;28;20451;-69
2023/04/08 06:33:00;;;;;;;82.63;20.50;;;;;;;;;;5073866;28;20542;-68
2023/04/08 06:35:29;;;;;;;80.43;20.20;;;;;;;;;;5073470;28;20991;-68
2023/04/08 06:37:56;;;;;;;78.20;19.63;;;;;;;;;;5073405;28;20479;-68
2023/04/08 06:40:23;;;;;;;79.37;19.70;;;;;;;;;;5073071;28;20451;-68
2023/04/08 06:42:50;;;;;;;76.20;18.73;;;;;;;;;;5073248;28;20452;-68
2023/04/08 06:45:17;;;;;;;79.80;20.10;;;;;;;;;;5073443;28;20657;-68
2023/04/08 06:47:44;;;;;;;77.60;18.50;;;;;;;;;;5073065;28;20471;-68
2023/04/08 06:50:12;;;;;;;78.33;19.70;;;;;;;;;;5072826;28;20447;-68
2023/04/08 06:52:40;;;;;;;77.07;18.40;;;;;;;;;;5073117;28;20826;-68
2023/04/08 06:55:07;;;;;;;76.50;18.10;;;;;;;;;;5072419;28;20816;-68
2023/04/08 06:57:34;;;;;;;77.60;17.30;;;;;;;;;;5072830;28;20455;-68
2023/04/08 07:00:02;;;;;;;78.80;17.80;;;;;;;;;;5072810;28;20459;-68
2023/04/08 07:02:29;;;;;;;73.90;16.27;;;;;;;;;;5072892;28;20444;-68
2023/04/08 07:04:56;;;;;;;76.77;18.63;;;;;;;;;;5072726;28;20987;-67
2023/04/08 07:07:23;;;;;;;73.97;16.03;;;;;;;;;;5072931;28;20448;-68
2023/04/08 07:09:51;;;;;;;76.90;18.27;;;;;;;;;;5072384;28;20453;-68
2023/04/08 07:12:19;;;;;;;75.90;17.77;;;;;;;;;;5072698;28;20457;-68
2023/04/08 07:14:46;;;;;;;72.90;15.90;;;;;;;;;;5072823;28;20447;-68
2023/04/08 07:17:13;;;;;;;75.00;17.27;;;;;;;;;;5072776;28;20447;-68
2023/04/08 07:19:40;;;;;;;74.87;18.20;;;;;;;;;;5072210;28;20467;-68
2023/04/08 07:22:07;;;;;;;75.60;18.50;;;;;;;;;;5072573;28;20473;-68
2023/04/08 07:24:35;;;;;;;73.57;16.90;;;;;;;;;;5072557;28;20459;-68
2023/04/08 07:27:03;;;;;;;74.30;16.90;;;;;;;;;;5072360;28;20479;-68
2023/04/08 07:29:30;;;;;;;75.73;16.50;;;;;;;;;;5072136;28;20463;-67
2023/04/08 07:31:57;;;;;;;74.47;16.53;;;;;;;;;;5072508;28;20454;-68
2023/04/08 07:34:24;;;;;;;71.47;14.57;;;;;;;;;;5072247;28;20447;-68
2023/04/08 07:36:52;;;;;;;73.90;15.90;;;;;;;;;;5072512;28;20447;-68
2023/04/08 07:39:19;;;;;;;74.03;15.67;;;;;;;;;;5071848;28;20463;-68
2023/04/08 07:41:46;;;;;;;71.90;15.90;;;;;;;;;;5072175;28;20467;-68
2023/04/08 07:44:16;;;;;;;71.50;16.53;;;;;;;;;;5072567;28;20729;-68
2023/04/08 07:46:44;;;;;;;73.57;15.93;;;;;;;;;;5072254;28;20483;-67
2023/04/08 07:49:11;;;;;;;72.50;16.27;;;;;;;;;;5071767;28;20471;-69
2023/04/08 07:51:38;;;;;;;72.37;16.60;;;;;;;;;;5071904;28;20451;-68
2023/04/08 07:54:05;;;;;;;72.13;16.87;;;;;;;;;;5072199;28;20444;-68
2023/04/08 07:56:33;;;;;;;73.07;16.30;;;;;;;;;;5072277;28;20451;-68
2023/04/08 07:59:00;;;;;;;73.40;16.03;;;;;;;;;;5071636;28;20473;-68
2023/04/08 08:01:30;;;;;;;70.87;14.93;;;;;;;;;;5072099;28;20447;-68
2023/04/08 08:03:57;;;;;;;70.70;14.87;;;;;;;;;;5071826;28;20542;-68
2023/04/08 08:06:24;;;;;;;69.57;14.73;;;;;;;;;;5071582;28;20475;-69
2023/04/08 08:08:51;;;;;;;73.60;16.53;;;;;;;;;;5071434;28;20467;-68
2023/04/08 08:11:18;;;;;;;76.83;17.27;;;;;;;;;;5072363;28;20458;-68
2023/04/08 08:13:45;;;;;;;71.70;16.40;;;;;;;;;;5071970;28;20455;-68
2023/04/08 08:16:13;;;;;;;74.47;16.67;;;;;;;;;;5072025;28;20816;-68
2023/04/08 08:18:41;;;;;;;74.83;14.57;;;;;;;;;;5071258;28;20502;-68
2023/04/08 08:21:08;;;;;;;70.47;16.10;;;;;;;;;;5071912;28;20443;-68
2023/04/08 08:23:36;;;;;;;72.30;16.57;;;;;;;;;;5072010;28;20455;-68
2023/04/08 08:26:03;;;;;;;72.00;15.83;;;;;;;;;;5071726;28;21141;-68
2023/04/08 08:28:31;;;;;;;71.07;15.80;;;;;;;;;;5071389;28;20471;-68
2023/04/08 08:30:58;;;;;;;73.00;16.60;;;;;;;;;;5071534;28;20457;-68
2023/04/08 08:33:25;;;;;;;69.37;14.50;;;;;;;;;;5071797;28;20466;-68
2023/04/08 08:35:54;;;;;;;71.40;14.60;;;;;;;;;;5071819;28;20439;-68
2023/04/08 08:38:21;;;;;;;70.77;15.00;;;;;;;;;;5071430;28;20467;-68
2023/04/08 08:40:54;;;;;;;70.47;14.60;;;;;;;;;;5071420;28;20839;-68
2023/04/08 08:43:21;;;;;;;67.97;14.57;;;;;;;;;;5071610;28;20483;-68
2023/04/08 08:45:48;;;;;;;69.53;15.20;;;;;;;;;;5071338;28;20479;-68
2023/04/08 08:48:16;;;;;;;71.40;14.97;;;;;;;;;;5071132;28;20478;-68
2023/04/08 08:50:43;;;;;;;72.50;16.17;;;;;;;;;;5071105;28;21022;-68
2023/04/08 08:53:12;;;;;;;70.60;15.07;;;;;;;;;;5071533;28;20454;-68
2023/04/08 08:55:39;;;;;;;72.00;15.40;;;;;;;;;;5071400;28;20951;-68
2023/04/08 08:58:07;;;;;;;74.70;15.00;;;;;;;;;;5071360;28;21004;-67
2023/04/08 09:00:35;;;;;;;70.13;14.90;;;;;;;;;;5071366;28;20450;-67
2023/04/08 09:03:15;;;;;;;71.50;16.60;;;;;;;;;;5071859;28;20452;-67
2023/04/08 09:05:48;;;;;;;71.27;14.23;;;;;;;;;;5071353;28;20479;-67
2023/04/08 09:08:30;;;;;;;74.73;16.27;;;;;;;;;;5071691;28;20540;-68
2023/04/08 09:11:11;;;;;;;70.37;15.53;;;;;;;;;;5069545;28;20956;-69
2023/04/08 09:13:39;;;;;;;69.67;13.87;;;;;;;;;;5071415;28;20494;-68
2023/04/08 09:16:08;;;;;;;68.70;14.50;;;;;;;;;;5071287;28;20444;-68
2023/04/08 09:18:35;;;;;;;70.17;14.30;;;;;;;;;;5073321;28;20463;-68
2023/04/08 09:21:02;;;;;;;71.73;14.93;;;;;;;;;;5074879;28;20446;-68
2023/04/08 09:23:40;;;;;;;69.07;14.27;;;;;;;;;;5074629;28;20465;-72
2023/04/08 09:26:12;;;;;;;68.27;14.57;;;;;;;;;;5074779;28;20533;-68
2023/04/08 09:28:40;;;;;;;72.00;13.70;;;;;;;;;;5074389;28;20836;-68
2023/04/08 09:31:19;;;;;;;69.60;13.87;;;;;;;;;;5074641;28;20801;-68
2023/04/08 09:33:47;;;;;;;75.67;15.57;;;;;;;;;;5074527;28;20447;-68
2023/04/08 09:36:14;;;;;;;69.73;14.30;;;;;;;;;;5074789;28;20447;-68
2023/04/08 09:38:41;;;;;;;69.17;14.50;;;;;;;;;;5074156;28;20467;-65
2023/04/08 09:41:09;;;;;;;69.70;14.57;;;;;;;;;;5074533;28;20458;-66
2023/04/08 09:43:42;;;;;;;67.33;13.63;;;;;;;;;;5074517;28;20936;-68
2023/04/08 09:46:11;;;;;;;67.57;13.20;;;;;;;;;;5074409;28;20487;-68
2023/04/08 09:48:41;;;;;;;69.60;15.30;;;;;;;;;;5074072;28;20546;-69
2023/04/08 09:51:08;;;;;;;69.03;15.03;;;;;;;;;;5074394;28;20447;-67
2023/04/08 09:53:38;;;;;;;68.20;14.13;;;;;;;;;;5074569;28;20496;-68
2023/04/08 09:56:08;;;;;;;70.53;13.13;;;;;;;;;;5074250;28;20444;-68
2023/04/08 09:58:40;;;;;;;67.77;13.20;;;;;;;;;;5073812;28;20463;-68
2023/04/08 10:01:08;;;;;;;67.23;13.03;;;;;;;;;;5074332;28;20455;-69
2023/04/08 10:03:37;;;;;;;66.90;13.10;;;;;;;;;;5074026;28;20459;-69
2023/04/08 10:06:05;;;;;;;67.20;13.70;;;;;;;;;;5074114;28;20479;-68
2023/04/08 10:08:32;;;;;;;67.27;13.03;;;;;;;;;;5073590;28;20509;-68
2023/04/08 10:10:59;;;;;;;67.50;14.07;;;;;;;;;;5073912;28;20447;-68
2023/04/08 10:13:28;;;;;;;68.90;13.47;;;;;;;;;;5074259;28;20448;-68
2023/04/08 10:16:18;;;;;;;68.63;13.77;;;;;;;;;;5074149;28;20493;-68
2023/04/08 10:18:45;;;;;;;68.57;13.37;;;;;;;;;;5073423;28;20459;-68
2023/04/08 10:21:27;;;;;;;72.00;13.37;;;;;;;;;;5073828;28;20446;-68
2023/04/08 10:24:00;;;;;;;68.10;13.20;;;;;;;;;;5073392;28;20461;-68
2023/04/08 10:26:38;;;;;;;65.63;13.07;;;;;;;;;;5073751;28;20483;-67
2023/04/08 10:29:23;;;;;;;67.00;13.30;;;;;;;;;;5072099;28;20515;-68
2023/04/08 10:31:51;;;;;;;66.70;12.20;;;;;;;;;;5073488;28;20966;-68
2023/04/08 10:34:20;;;;;;;67.17;13.13;;;;;;;;;;5073627;28;20541;-69
2023/04/08 10:36:47;;;;;;;65.77;11.60;;;;;;;;;;5073584;28;20542;-67
2023/04/08 10:39:15;;;;;;;68.10;12.40;;;;;;;;;;5073081;28;20934;-68
2023/04/08 10:41:42;;;;;;;67.40;13.33;;;;;;;;;;5073395;28;20443;-68
2023/04/08 10:44:16;;;;;;;66.30;12.17;;;;;;;;;;5073325;28;20841;-68
2023/04/08 10:46:43;;;;;;;67.20;12.03;;;;;;;;;;5073100;28;20510;-68
2023/04/08 10:49:12;;;;;;;67.83;12.47;;;;;;;;;;5072708;28;20987;-68
2023/04/08 10:51:40;;;;;;;66.60;11.40;;;;;;;;;;5073213;28;20461;-68
2023/04/08 10:54:07;;;;;;;67.60;12.13;;;;;;;;;;5073131;28;20511;-67
2023/04/08 10:56:34;;;;;;;64.83;11.07;;;;;;;;;;5073194;28;20969;-69
2023/04/08 10:59:02;;;;;;;66.67;11.37;;;;;;;;;;5072344;28;20467;-68
2023/04/08 11:01:38;;;;;;;65.00;10.90;;;;;;;;;;5073088;28;20443;-68
2023/04/08 11:04:07;;;;;;;69.70;11.77;;;;;;;;;;5073102;28;20997;-67
2023/04/08 11:06:38;;;;;;;79.83;11.83;;;;;;;;;;5072868;28;21033;-68
2023/04/08 11:09:05;;;;;;;66.27;11.27;;;;;;;;;;5072805;28;20835;-69
2023/04/08 11:11:32;;;;;;;66.33;12.20;;;;;;;;;;5072827;28;20447;-68
2023/04/08 11:14:00;;;;;;;68.00;12.13;;;;;;;;;;5072988;28;20824;-68
2023/04/08 11:16:27;;;;;;;64.90;11.43;;;;;;;;;;5073015;28;20451;-69
2023/04/08 11:18:55;;;;;;;68.97;11.80;;;;;;;;;;5072600;28;20479;-68
2023/04/08 11:21:24;;;;;;;66.00;11.40;;;;;;;;;;5072855;28;20542;-68
2023/04/08 11:23:52;;;;;;;65.90;11.73;;;;;;;;;;5072537;28;20455;-68
2023/04/08 11:26:20;;;;;;;67.07;12.00;;;;;;;;;;5072478;28;20452;-68
2023/04/08 11:28:49;;;;;;;66.33;12.13;;;;;;;;;;5072243;28;20467;-68
2023/04/08 11:31:17;;;;;;;69.10;12.10;;;;;;;;;;5072574;28;20504;-68
2023/04/08 11:33:46;;;;;;;67.87;12.67;;;;;;;;;;5072884;28;20551;-69
2023/04/08 11:36:13;;;;;;;70.27;12.27;;;;;;;;;;5072502;28;21014;-68
2023/04/08 11:38:41;;;;;;;66.27;10.90;;;;;;;;;;5071996;28;20463;-68
2023/04/08 11:41:10;;;;;;;66.47;11.10;;;;;;;;;;5072029;28;20932;-68
2023/04/08 11:43:38;;;;;;;68.30;11.57;;;;;;;;;;5072240;28;20979;-68
2023/04/08 11:46:14;;;;;;;64.40;11.30;;;;;;;;;;5072281;28;20447;-68
2023/04/08 11:48:41;;;;;;;63.97;9.97;;;;;;;;;;5071863;28;20459;-68
2023/04/08 11:51:08;;;;;;;68.77;11.83;;;;;;;;;;5072151;28;20439;-68
2023/04/08 11:53:36;;;;;;;66.43;11.00;;;;;;;;;;5072318;28;20455;-68
2023/04/08 11:56:17;;;;;;;66.30;11.90;;;;;;;;;;5072202;28;20539;-68
2023/04/08 11:58:45;;;;;;;67.77;12.17;;;;;;;;;;5071731;28;20467;-68
2023/04/08 12:01:12;;;;;;;67.67;10.60;;;;;;;;;;5072117;28;20530;-69
2023/04/08 12:03:40;;;;;;;66.53;11.40;;;;;;;;;;5072642;28;20443;-68
2023/04/08 12:06:08;;;;;;;65.23;12.40;;;;;;;;;;5071907;28;20450;-69
2023/04/08 12:08:35;;;;;;;65.20;11.23;;;;;;;;;;5071692;28;20491;-68
2023/04/08 12:11:02;;;;;;;66.20;11.10;;;;;;;;;;5071969;28;20451;-68
2023/04/08 12:13:31;;;;;;;65.00;10.13;;;;;;;;;;5072049;28;20447;-68
2023/04/08 12:15:58;;;;;;;67.83;12.07;;;;;;;;;;5072237;28;20447;-68
2023/04/08 12:18:25;;;;;;;65.53;10.27;;;;;;;;;;5071665;28;20467;-68
2023/04/08 12:20:53;;;;;;;65.43;11.07;;;;;;;;;;5071951;28;20444;-67
2023/04/08 12:23:20;;;;;;;68.57;12.27;;;;;;;;;;5071928;28;20462;-67
2023/04/08 12:25:47;;;;;;;67.97;11.10;;;;;;;;;;5071810;28;20450;-68
2023/04/08 12:28:14;;;;;;;65.60;10.40;;;;;;;;;;5071419;28;21003;-67
2023/04/08 12:30:43;;;;;;;65.03;11.33;;;;;;;;;;5071306;28;20443;-67
2023/04/08 12:33:10;;;;;;;66.83;11.43;;;;;;;;;;5071861;28;20452;-68
2023/04/08 12:35:37;;;;;;;65.70;11.50;;;;;;;;;;5071561;28;20990;-68
2023/04/08 12:38:05;;;;;;;65.33;11.53;;;;;;;;;;5071556;28;20837;-68
2023/04/08 12:40:32;;;;;;;67.97;11.43;;;;;;;;;;5071262;28;20498;-67
2023/04/08 12:42:59;;;;;;;66.20;12.30;;;;;;;;;;5071528;28;20454;-68
2023/04/08 12:45:26;;;;;;;66.97;12.23;;;;;;;;;;5071413;28;20447;-67
2023/04/08 12:47:54;;;;;;;67.77;12.10;;;;;;;;;;5071273;28;21045;-67
2023/04/08 12:50:22;;;;;;;65.60;11.37;;;;;;;;;;5071328;28;20458;-67
2023/04/08 12:52:49;;;;;;;66.07;11.30;;;;;;;;;;5072820;28;21004;-67
2023/04/08 12:55:17;;;;;;;67.03;12.00;;;;;;;;;;5075901;28;20441;-67
2023/04/08 12:57:44;;;;;;;64.37;10.93;;;;;;;;;;5075063;28;20845;-68
2023/04/08 13:00:12;;;;;;;65.87;12.33;;;;;;;;;;5075322;28;20450;-67
2023/04/08 13:02:40;;;;;;;65.00;11.67;;;;;;;;;;5075136;28;20523;-68
2023/04/08 13:05:09;;;;;;;69.03;12.53;;;;;;;;;;5075227;28;20450;-69
2023/04/08 13:07:36;;;;;;;64.87;11.30;;;;;;;;;;5074997;28;20581;-68
2023/04/08 13:10:05;;;;;;;67.97;12.30;;;;;;;;;;5074760;28;20443;-67
2023/04/08 13:12:32;;;;;;;66.20;12.43;;;;;;;;;;5074821;28;20828;-67
2023/04/08 13:15:00;;;;;;;65.67;11.73;;;;;;;;;;5074914;28;20446;-67
2023/04/08 13:17:27;;;;;;;66.53;12.80;;;;;;;;;;5074955;28;20446;-67
2023/04/08 13:19:55;;;;;;;65.27;11.90;;;;;;;;;;5074601;28;20878;-68
2023/04/08 13:22:23;;;;;;;67.13;11.40;;;;;;;;;;5074893;28;20470;-67
2023/04/08 13:24:50;;;;;;;67.17;12.13;;;;;;;;;;5074617;28;20455;-68
2023/04/08 13:27:18;;;;;;;65.57;11.00;;;;;;;;;;5074480;28;21006;-67
2023/04/08 13:29:45;;;;;;;67.37;12.10;;;;;;;;;;5074754;28;20443;-68
2023/04/08 13:32:12;;;;;;;68.40;12.00;;;;;;;;;;5074942;28;20454;-67
2023/04/08 13:34:39;;;;;;;64.80;11.03;;;;;;;;;;5074686;28;20820;-67
2023/04/08 13:37:06;;;;;;;68.33;12.47;;;;;;;;;;5074571;28;20443;-68
2023/04/08 13:39:35;;;;;;;65.80;11.40;;;;;;;;;;5074127;28;20463;-67
2023/04/08 13:42:02;;;;;;;64.33;10.80;;;;;;;;;;5074836;28;20447;-67
2023/04/08 13:44:29;;;;;;;68.13;11.70;;;;;;;;;;5074616;28;20443;-68
2023/04/08 13:46:56;;;;;;;64.10;10.90;;;;;;;;;;5074271;28;20454;-67
2023/04/08 13:49:23;;;;;;;64.67;11.10;;;;;;;;;;5073980;28;20463;-68
2023/04/08 13:51:50;;;;;;;65.10;10.97;;;;;;;;;;5074231;28;20447;-68
2023/04/08 13:54:17;;;;;;;64.83;10.73;;;;;;;;;;5074192;28;20958;-68
2023/04/08 13:56:46;;;;;;;64.90;10.10;;;;;;;;;;5074371;28;20453;-67
2023/04/08 13:59:13;;;;;;;63.73;10.20;;;;;;;;;;5073705;28;20467;-68
2023/04/08 14:01:40;;;;;;;63.33;9.90;;;;;;;;;;5074183;28;20822;-67
2023/04/08 14:04:07;;;;;;;69.47;14.93;;;;;;;;;;5073825;28;20454;-68
2023/04/08 14:06:35;;;;;;;67.37;11.87;;;;;;;;;;5073975;28;20439;-67
2023/04/08 14:09:02;;;;;;;64.83;11.03;;;;;;;;;;5073712;28;20544;-68
2023/04/08 14:11:29;;;;;;;65.00;10.97;;;;;;;;;;5073888;28;20447;-67
2023/04/08 14:13:57;;;;;;;67.03;11.57;;;;;;;;;;5074012;28;20474;-68
2023/04/08 14:16:25;;;;;;;65.37;10.00;;;;;;;;;;5073811;28;20453;-67
2023/04/08 14:18:52;;;;;;;63.67;10.10;;;;;;;;;;5073437;28;20998;-67
2023/04/08 14:21:20;;;;;;;67.00;11.00;;;;;;;;;;5073593;28;20448;-68